Time;durP1;ratioP1;P1;durP2;ratioP2;P2;SDS_P1;SDS_P2;PMS_P1;PMS_P2;Temp;Humidity;BMP_temperature;BMP_pressure;BME280_temperature;BME280_humidity;BME280_pressure;Samples;Min_cycle;Max_cycle;Signal;HPM_P1;HPM_P2
2021/10/18 00:01:58;;;;;;;3.20;1.50;;;22.00;93.70;;;;;;5112052;28;20174;-74
2021/10/18 00:04:25;;;;;;;4.17;1.40;;;22.20;93.60;;;;;;5093872;28;20696;-72
2021/10/18 00:06:53;;;;;;;5.97;1.43;;;22.50;93.10;;;;;;5093392;28;20166;-74
2021/10/18 00:09:21;;;;;;;4.57;1.20;;;22.30;92.80;;;;;;5091118;28;20206;-75
2021/10/18 00:11:48;;;;;;;2.97;1.20;;;22.40;92.90;;;;;;5091809;28;20262;-74
2021/10/18 00:14:16;;;;;;;3.57;1.23;;;22.70;92.40;;;;;;5091722;28;20243;-70
2021/10/18 00:16:43;;;;;;;4.40;1.00;;;22.80;92.30;;;;;;5092346;28;20228;-72
2021/10/18 00:19:11;;;;;;;4.27;1.20;;;23.00;91.20;;;;;;5078300;28;20175;-68
2021/10/18 00:21:39;;;;;;;4.03;1.37;;;22.80;90.90;;;;;;5085254;28;20178;-72
2021/10/18 00:24:07;;;;;;;2.33;1.27;;;22.60;90.70;;;;;;5091198;28;20275;-74
2021/10/18 00:26:35;;;;;;;1.87;0.90;;;22.70;90.40;;;;;;5092520;28;20511;-79
2021/10/18 00:29:02;;;;;;;3.37;1.57;;;22.60;89.40;;;;;;5072732;28;20253;-74
2021/10/18 00:31:30;;;;;;;2.07;1.00;;;22.90;89.40;;;;;;5071611;28;20517;-71
2021/10/18 00:33:57;;;;;;;3.03;1.03;;;23.20;87.00;;;;;;5071514;28;20262;-72
2021/10/18 00:36:24;;;;;;;4.73;1.30;;;23.40;87.20;;;;;;5091321;28;20182;-71
2021/10/18 00:38:52;;;;;;;3.83;1.73;;;23.40;87.20;;;;;;5090905;28;20175;-72
2021/10/18 00:41:20;;;;;;;6.20;1.13;;;23.60;85.80;;;;;;5084891;28;20227;-71
2021/10/18 00:43:49;;;;;;;5.87;1.40;;;23.70;84.80;;;;;;5090662;28;20555;-77
2021/10/18 00:46:22;;;;;;;3.90;1.47;;;23.80;84.80;;;;;;5084963;28;20182;-72
2021/10/18 00:48:51;;;;;;;3.50;0.80;;;24.00;82.20;;;;;;5087177;28;20207;-73
2021/10/18 00:51:23;;;;;;;5.03;0.90;;;24.00;81.40;;;;;;5074287;28;20637;-75
2021/10/18 00:53:54;;;;;;;3.23;0.83;;;24.00;77.60;;;;;;5091990;28;20181;-75
2021/10/18 00:56:22;;;;;;;2.07;0.80;;;24.30;77.00;;;;;;5092519;28;20264;-79
2021/10/18 00:58:50;;;;;;;3.40;0.93;;;24.20;75.40;;;;;;5092648;28;20185;-78
2021/10/18 01:01:18;;;;;;;3.77;1.13;;;24.30;76.30;;;;;;5081830;28;20590;-75
2021/10/18 01:03:46;;;;;;;1.47;0.80;;;24.40;75.20;;;;;;5072704;28;20202;-74
2021/10/18 01:06:13;;;;;;;2.20;0.70;;;24.50;74.80;;;;;;5088422;28;20186;-76
2021/10/18 01:08:42;;;;;;;2.47;0.80;;;24.70;71.90;;;;;;5075515;28;20211;-77
2021/10/18 01:11:10;;;;;;;1.53;0.70;;;24.50;71.00;;;;;;5092029;28;20219;-71
2021/10/18 01:13:37;;;;;;;1.97;0.63;;;24.70;69.60;;;;;;5092163;28;20313;-79
2021/10/18 01:16:06;;;;;;;2.97;0.90;;;24.80;70.10;;;;;;5092644;28;20540;-76
2021/10/18 01:18:33;;;;;;;5.67;0.90;;;24.70;71.10;;;;;;5084656;28;20237;-75
2021/10/18 01:21:01;;;;;;;2.50;0.90;;;24.70;71.40;;;;;;5092775;28;20178;-74
2021/10/18 01:23:29;;;;;;;1.83;0.77;;;25.10;71.50;;;;;;5093205;28;20190;-75
2021/10/18 01:25:56;;;;;;;5.20;0.93;;;25.10;69.60;;;;;;5102860;28;20545;-76
2021/10/18 01:28:24;;;;;;;1.10;0.63;;;25.00;71.00;;;;;;5092446;28;20185;-72
2021/10/18 01:30:51;;;;;;;1.23;0.80;;;25.10;70.00;;;;;;5092321;28;20174;-74
2021/10/18 01:33:19;;;;;;;2.83;0.83;;;25.40;69.30;;;;;;5092337;28;20200;-77
2021/10/18 01:35:46;;;;;;;2.57;0.80;;;25.50;68.70;;;;;;5092002;28;20187;-75
2021/10/18 01:38:14;;;;;;;2.00;0.60;;;25.40;69.10;;;;;;5092129;28;20159;-71
2021/10/18 01:40:41;;;;;;;3.40;1.50;;;25.60;68.80;;;;;;5092341;28;20179;-76
2021/10/18 01:43:09;;;;;;;2.20;0.90;;;25.70;67.60;;;;;;5091177;28;20190;-75
2021/10/18 01:45:36;;;;;;;2.97;0.70;;;25.60;67.40;;;;;;5092348;28;20592;-77
2021/10/18 01:48:04;;;;;;;3.47;1.20;;;25.60;67.50;;;;;;5092533;28;20186;-78
2021/10/18 01:50:31;;;;;;;1.47;0.77;;;25.80;67.30;;;;;;5092118;28;20567;-78
2021/10/18 01:52:59;;;;;;;1.50;0.50;;;26.10;66.60;;;;;;5092264;28;20357;-72
2021/10/18 01:55:26;;;;;;;2.30;0.70;;;26.30;64.80;;;;;;5092257;28;20606;-77
2021/10/18 01:57:55;;;;;;;1.40;0.67;;;26.40;62.90;;;;;;5092020;28;20214;-73
2021/10/18 02:00:22;;;;;;;3.30;0.80;;;26.20;62.20;;;;;;5091858;28;20223;-72
2021/10/18 02:02:49;;;;;;;2.00;0.60;;;26.40;62.10;;;;;;5092354;28;20178;-69
2021/10/18 02:05:17;;;;;;;1.80;0.40;;;26.50;61.20;;;;;;5093805;28;20563;-70
2021/10/18 02:07:45;;;;;;;2.60;0.70;;;26.50;60.80;;;;;;5082283;28;20605;-69
2021/10/18 02:10:13;;;;;;;2.30;0.60;;;26.50;59.80;;;;;;5095787;28;20241;-71
2021/10/18 02:12:44;;;;;;;1.37;0.60;;;26.60;59.40;;;;;;5095686;28;20229;-74
2021/10/18 02:15:13;;;;;;;10.07;1.20;;;26.90;58.90;;;;;;5095577;28;20666;-74
2021/10/18 02:17:41;;;;;;;5.00;1.63;;;27.00;68.40;;;;;;5095651;28;20183;-77
2021/10/18 02:20:12;;;;;;;3.60;1.23;;;26.60;74.20;;;;;;5096090;28;20628;-78
2021/10/18 02:22:40;;;;;;;3.70;1.30;;;25.70;73.50;;;;;;5095986;28;20194;-76
2021/10/18 02:25:09;;;;;;;7.50;1.70;;;25.70;75.80;;;;;;5095794;28;20636;-75
2021/10/18 02:27:36;;;;;;;5.80;1.30;;;26.20;73.70;;;;;;5095631;28;20186;-73
2021/10/18 02:30:10;;;;;;;4.93;1.40;;;26.30;75.20;;;;;;5095532;28;20210;-77
2021/10/18 02:32:38;;;;;;;4.47;2.17;;;26.40;75.10;;;;;;5095461;28;20236;-75
2021/10/18 02:35:07;;;;;;;6.30;1.40;;;26.90;74.60;;;;;;5095705;28;20664;-76
2021/10/18 02:37:35;;;;;;;6.33;1.90;;;26.40;75.20;;;;;;5095689;28;20163;-73
2021/10/18 02:40:02;;;;;;;6.33;1.60;;;26.70;73.90;;;;;;5095358;28;20173;-74
2021/10/18 02:42:30;;;;;;;7.07;1.30;;;26.90;73.20;;;;;;5095223;28;20182;-75
2021/10/18 02:44:58;;;;;;;5.43;1.23;;;27.10;73.40;;;;;;5095103;28;20202;-76
2021/10/18 02:47:25;;;;;;;4.00;1.30;;;27.60;69.30;;;;;;5095401;28;20189;-80
2021/10/18 02:49:53;;;;;;;4.07;1.53;;;27.00;73.80;;;;;;5094450;28;20297;-76
2021/10/18 02:52:20;;;;;;;5.80;1.70;;;26.90;74.50;;;;;;5095177;28;20183;-74
2021/10/18 02:54:47;;;;;;;6.03;1.20;;;27.10;74.00;;;;;;5095124;28;20216;-76
2021/10/18 02:57:14;;;;;;;7.80;1.57;;;27.10;73.90;;;;;;5094671;28;20181;-79
2021/10/18 02:59:42;;;;;;;6.60;1.50;;;27.30;73.20;;;;;;5094932;28;20727;-78
2021/10/18 03:02:10;;;;;;;3.90;1.20;;;26.80;74.20;;;;;;5095148;28;20262;-75
2021/10/18 03:04:38;;;;;;;3.73;1.30;;;27.40;73.30;;;;;;5095231;28;20170;-75
2021/10/18 03:07:05;;;;;;;10.93;1.50;;;27.60;72.60;;;;;;5094956;28;20179;-74
2021/10/18 03:09:33;;;;;;;6.23;1.33;;;28.60;70.30;;;;;;5094761;28;20294;-75
2021/10/18 03:12:00;;;;;;;2.93;1.27;;;28.70;70.60;;;;;;5089003;28;20203;-74
2021/10/18 03:14:27;;;;;;;3.47;1.07;;;28.00;71.80;;;;;;5091443;28;20535;-78
2021/10/18 03:16:55;;;;;;;3.17;1.00;;;28.00;72.00;;;;;;5094094;28;20174;-74
2021/10/18 03:19:22;;;;;;;3.80;1.10;;;28.10;71.00;;;;;;5094941;28;20587;-76
2021/10/18 03:21:49;;;;;;;3.57;1.13;;;28.50;69.60;;;;;;5094575;28;20194;-76
2021/10/18 03:24:17;;;;;;;7.07;1.13;;;28.50;69.90;;;;;;5094972;28;20170;-76
2021/10/18 03:26:44;;;;;;;3.57;1.47;;;28.00;69.80;;;;;;5094804;28;20544;-76
2021/10/18 03:29:11;;;;;;;3.83;1.40;;;27.90;70.60;;;;;;5094441;28;20688;-77
2021/10/18 03:31:39;;;;;;;5.17;1.60;;;27.90;71.40;;;;;;5094594;28;20182;-78
2021/10/18 03:34:06;;;;;;;6.20;1.20;;;28.50;70.90;;;;;;5094629;28;20198;-78
2021/10/18 03:36:34;;;;;;;3.67;1.37;;;28.30;70.40;;;;;;5090424;28;20699;-77
2021/10/18 03:39:01;;;;;;;4.87;1.30;;;28.40;71.00;;;;;;5093963;28;20641;-73
2021/10/18 03:41:28;;;;;;;2.40;1.17;;;28.70;70.60;;;;;;5088418;28;20604;-75
2021/10/18 03:43:56;;;;;;;2.53;1.13;;;28.60;70.70;;;;;;5091612;28;20287;-75
2021/10/18 03:46:23;;;;;;;1.77;0.80;;;28.20;69.90;;;;;;5092224;28;20250;-74
2021/10/18 03:48:51;;;;;;;6.37;1.23;;;28.00;70.50;;;;;;5092388;28;20202;-76
2021/10/18 03:51:18;;;;;;;5.00;1.00;;;28.00;71.10;;;;;;5091987;28;20220;-75
2021/10/18 03:53:45;;;;;;;4.47;1.17;;;27.90;70.60;;;;;;5090147;28;20207;-76
2021/10/18 03:56:13;;;;;;;3.80;1.20;;;27.70;70.40;;;;;;5079865;28;20255;-74
2021/10/18 03:58:40;;;;;;;4.10;1.40;;;28.10;70.00;;;;;;5099662;28;20649;-79
2021/10/18 04:01:10;;;;;;;4.07;1.00;;;28.30;69.50;;;;;;5089073;28;20253;-76
2021/10/18 04:03:38;;;;;;;3.70;1.10;;;28.00;69.30;;;;;;5092694;28;20240;-75
2021/10/18 04:06:06;;;;;;;3.97;0.80;;;27.60;70.20;;;;;;5087436;28;20190;-77
2021/10/18 04:08:33;;;;;;;3.00;0.97;;;27.70;69.90;;;;;;5083456;28;20183;-74
2021/10/18 04:11:01;;;;;;;3.83;0.87;;;27.60;70.00;;;;;;5096238;28;20190;-74
2021/10/18 04:13:29;;;;;;;8.13;1.23;;;27.90;69.80;;;;;;5091162;28;20214;-76
2021/10/18 04:15:56;;;;;;;3.87;0.80;;;28.10;69.80;;;;;;5091528;28;20179;-77
2021/10/18 04:18:24;;;;;;;5.40;1.30;;;28.40;69.00;;;;;;5093363;28;20704;-78
2021/10/18 04:20:51;;;;;;;3.43;0.87;;;28.80;68.30;;;;;;5093522;28;20213;-73
2021/10/18 04:23:19;;;;;;;5.63;1.30;;;28.80;67.70;;;;;;5093279;28;20171;-76
2021/10/18 04:25:46;;;;;;;6.27;1.10;;;28.50;69.10;;;;;;5093467;28;20174;-72
2021/10/18 04:28:14;;;;;;;3.63;1.00;;;28.50;70.90;;;;;;5080788;28;20184;-76
2021/10/18 04:30:41;;;;;;;5.10;1.13;;;28.80;72.30;;;;;;5082820;28;20540;-76
2021/10/18 04:33:08;;;;;;;5.00;1.23;;;28.60;73.00;;;;;;5074681;28;20179;-75
2021/10/18 04:35:36;;;;;;;6.40;1.40;;;28.40;75.00;;;;;;5090148;28;20170;-71
2021/10/18 04:38:04;;;;;;;4.93;1.10;;;28.40;75.80;;;;;;5091804;28;20227;-71
2021/10/18 04:40:31;;;;;;;5.47;1.27;;;28.20;77.40;;;;;;5090817;28;20186;-72
2021/10/18 04:42:59;;;;;;;7.67;1.33;;;28.60;77.70;;;;;;5093061;28;20327;-74
2021/10/18 04:45:27;;;;;;;3.93;1.20;;;28.20;79.80;;;;;;5090610;28;20178;-70
2021/10/18 04:47:54;;;;;;;4.73;1.40;;;27.80;81.70;;;;;;5077286;28;20588;-77
2021/10/18 04:50:22;;;;;;;4.27;1.37;;;27.80;82.20;;;;;;5093187;28;20707;-73
2021/10/18 04:52:51;;;;;;;3.77;1.13;;;28.10;81.00;;;;;;5084293;28;20187;-76
2021/10/18 04:55:18;;;;;;;3.50;1.20;;;28.20;80.20;;;;;;5083002;28;20182;-74
2021/10/18 04:58:00;;;;;;;5.60;1.33;;;27.50;82.10;;;;;;5089758;28;20237;-76
2021/10/18 05:00:30;;;;;;;2.63;1.10;;;27.80;81.60;;;;;;5092544;28;20178;-75
2021/10/18 05:02:57;;;;;;;7.33;1.40;;;28.00;81.10;;;;;;5079219;28;20538;-78
2021/10/18 05:05:25;;;;;;;4.10;1.27;;;28.00;81.60;;;;;;5093355;28;20171;-73
2021/10/18 05:08:12;;;;;;;4.43;1.13;;;27.50;82.50;;;;;;5092009;28;20186;-72
2021/10/18 05:10:44;;;;;;;3.50;1.50;;;27.50;84.20;;;;;;5085448;28;20308;-71
2021/10/18 05:13:12;;;;;;;9.80;1.40;;;27.60;83.10;;;;;;5079531;28;20218;-74
2021/10/18 05:15:39;;;;;;;5.00;1.90;;;27.50;84.00;;;;;;5091878;28;20189;-71
2021/10/18 05:18:07;;;;;;;3.80;1.60;;;27.50;84.30;;;;;;5084222;28;20272;-69
2021/10/18 05:20:36;;;;;;;5.20;1.70;;;26.90;84.70;;;;;;5078502;28;20317;-71
2021/10/18 05:23:04;;;;;;;7.57;1.57;;;26.90;84.50;;;;;;5078933;28;20534;-70
2021/10/18 05:25:32;;;;;;;5.30;1.37;;;26.90;85.10;;;;;;5092613;28;20585;-71
2021/10/18 05:27:59;;;;;;;6.33;1.60;;;27.20;85.60;;;;;;5091474;28;20710;-70
2021/10/18 05:30:26;;;;;;;6.20;1.67;;;26.90;86.20;;;;;;5086713;28;20215;-71
2021/10/18 05:32:56;;;;;;;5.27;1.30;;;26.70;85.80;;;;;;5079897;28;20179;-74
2021/10/18 05:35:25;;;;;;;5.87;1.70;;;26.80;85.60;;;;;;5092177;28;20321;-82
2021/10/18 05:37:53;;;;;;;5.03;2.00;;;26.50;86.30;;;;;;5091819;28;20181;-72
2021/10/18 05:40:22;;;;;;;5.60;2.27;;;26.40;87.60;;;;;;5088707;28;20174;-71
2021/10/18 05:42:50;;;;;;;5.43;1.70;;;27.00;83.60;;;;;;5088524;28;20209;-73
2021/10/18 05:45:18;;;;;;;4.40;1.63;;;28.00;81.80;;;;;;5095726;28;20179;-72
2021/10/18 05:48:00;;;;;;;3.60;1.10;;;28.00;82.70;;;;;;5096071;28;20208;-75
2021/10/18 05:50:32;;;;;;;8.87;1.33;;;28.10;82.60;;;;;;5085922;28;20305;-73
2021/10/18 05:53:00;;;;;;;5.47;1.33;;;28.20;81.50;;;;;;5096083;28;20186;-75
2021/10/18 05:55:27;;;;;;;5.50;1.33;;;28.70;80.60;;;;;;5081051;28;20197;-74
2021/10/18 05:57:57;;;;;;;5.43;1.10;;;28.10;80.50;;;;;;5093948;28;20190;-74
2021/10/18 06:00:26;;;;;;;6.53;1.40;;;27.40;82.20;;;;;;5095804;28;20180;-75
2021/10/18 06:02:54;;;;;;;5.33;1.13;;;26.50;83.70;;;;;;5093254;28;20285;-73
2021/10/18 06:05:24;;;;;;;3.77;1.20;;;26.50;85.30;;;;;;5093795;28;20232;-74
2021/10/18 06:07:51;;;;;;;4.73;1.13;;;27.00;84.60;;;;;;5088847;28;20536;-74
2021/10/18 06:10:20;;;;;;;5.53;0.90;;;27.10;83.90;;;;;;5086067;28;20222;-76
2021/10/18 06:12:48;;;;;;;6.27;1.50;;;27.20;84.00;;;;;;5094799;28;20695;-74
2021/10/18 06:15:15;;;;;;;3.67;1.37;;;27.30;83.90;;;;;;5095473;28;20247;-73
2021/10/18 06:17:44;;;;;;;5.60;1.80;;;27.50;83.30;;;;;;5095261;28;20265;-73
2021/10/18 06:20:11;;;;;;;4.53;1.60;;;27.80;81.90;;;;;;5084691;28;20183;-73
2021/10/18 06:22:39;;;;;;;4.60;1.57;;;27.60;81.70;;;;;;5091391;28;20170;-80
2021/10/18 06:25:07;;;;;;;4.83;1.77;;;27.40;81.10;;;;;;5095369;28;20175;-76
2021/10/18 06:27:35;;;;;;;6.83;1.87;;;27.20;82.40;;;;;;5088647;28;20574;-75
2021/10/18 06:30:03;;;;;;;3.27;1.90;;;27.30;80.80;;;;;;5091168;28;20572;-71
2021/10/18 06:32:32;;;;;;;7.30;1.33;;;27.00;80.20;;;;;;5080799;28;20251;-74
2021/10/18 06:35:00;;;;;;;2.60;1.10;;;27.40;80.20;;;;;;5079459;28;20187;-75
2021/10/18 06:37:27;;;;;;;3.57;0.90;;;27.20;78.90;;;;;;5086879;28;20170;-73
2021/10/18 06:39:54;;;;;;;3.27;0.87;;;26.90;79.30;;;;;;5095094;28;20549;-77
2021/10/18 06:42:21;;;;;;;5.67;1.07;;;26.60;79.90;;;;;;5092647;28;20179;-72
2021/10/18 06:44:49;;;;;;;7.13;0.90;;;26.40;78.80;;;;;;5092650;28;20194;-74
2021/10/18 06:47:17;;;;;;;3.43;1.30;;;26.60;79.10;;;;;;5093852;28;20175;-70
2021/10/18 06:49:44;;;;;;;2.97;0.90;;;26.20;78.90;;;;;;5093347;28;20215;-73
2021/10/18 06:52:11;;;;;;;2.07;1.00;;;25.90;81.00;;;;;;5094242;28;20194;-74
2021/10/18 06:54:42;;;;;;;2.70;0.93;;;26.10;80.80;;;;;;5091863;28;20463;-71
2021/10/18 06:57:09;;;;;;;4.03;1.20;;;25.70;80.10;;;;;;5094666;28;20213;-70
2021/10/18 06:59:37;;;;;;;3.70;1.00;;;25.60;79.90;;;;;;5089677;28;20649;-76
2021/10/18 07:02:04;;;;;;;7.47;1.30;;;25.30;80.40;;;;;;5085454;28;20262;-74
2021/10/18 07:04:33;;;;;;;5.70;1.10;;;25.20;82.10;;;;;;5088378;28;20213;-72
2021/10/18 07:07:02;;;;;;;4.27;1.10;;;25.10;82.80;;;;;;5083328;28;20553;-73
2021/10/18 07:09:29;;;;;;;2.80;0.83;;;25.10;82.20;;;;;;5088827;28;20198;-72
2021/10/18 07:11:57;;;;;;;3.27;1.10;;;25.10;82.80;;;;;;5091448;28;20218;-75
2021/10/18 07:14:25;;;;;;;6.90;0.90;;;25.20;82.60;;;;;;5088583;28;20217;-77
2021/10/18 07:16:52;;;;;;;5.03;1.20;;;24.80;84.40;;;;;;5091327;28;20181;-76
2021/10/18 07:19:20;;;;;;;3.63;1.27;;;24.50;84.90;;;;;;5092296;28;20167;-77
2021/10/18 07:21:47;;;;;;;4.93;1.07;;;23.70;86.90;;;;;;5092550;28;20249;-75
2021/10/18 07:24:18;;;;;;;4.47;1.50;;;23.20;89.50;;;;;;5091744;28;20650;-78
2021/10/18 07:26:50;;;;;;;5.70;1.20;;;22.90;90.90;;;;;;5091568;28;20228;-77
2021/10/18 07:29:21;;;;;;;3.30;1.20;;;22.60;91.70;;;;;;5093629;28;20577;-75
2021/10/18 07:31:49;;;;;;;8.20;1.70;;;22.10;92.90;;;;;;5092741;28;20236;-75
2021/10/18 07:34:18;;;;;;;3.83;1.27;;;22.00;93.90;;;;;;5093593;28;20189;-76
2021/10/18 07:36:49;;;;;;;3.57;1.10;;;22.10;94.20;;;;;;5092961;28;20189;-78
2021/10/18 07:39:25;;;;;;;4.83;1.57;;;22.20;93.90;;;;;;5080881;28;20195;-75
2021/10/18 07:41:56;;;;;;;6.77;1.00;;;22.00;93.80;;;;;;5084752;28;20189;-74
2021/10/18 07:44:25;;;;;;;3.90;1.70;;;21.90;93.90;;;;;;5083449;28;20190;-76
2021/10/18 07:46:55;;;;;;;4.63;1.03;;;21.90;93.60;;;;;;5073676;28;20613;-73
2021/10/18 07:49:27;;;;;;;2.77;1.50;;;21.80;93.90;;;;;;5088247;28;20211;-75
2021/10/18 07:51:55;;;;;;;4.90;1.20;;;21.80;93.90;;;;;;5088026;28;20209;-73
2021/10/18 07:54:27;;;;;;;2.33;1.13;;;21.80;93.80;;;;;;5094310;28;20192;-74
2021/10/18 07:56:54;;;;;;;4.23;1.10;;;21.70;93.50;;;;;;5092626;28;20667;-73
2021/10/18 07:59:21;;;;;;;4.47;1.00;;;21.60;93.80;;;;;;5091010;28;20175;-71
2021/10/18 08:01:49;;;;;;;2.43;1.00;;;21.50;93.90;;;;;;5091583;28;20209;-73
2021/10/18 08:04:16;;;;;;;8.77;1.20;;;21.40;93.50;;;;;;5091826;28;20193;-75
2021/10/18 08:06:43;;;;;;;2.77;1.10;;;21.40;93.60;;;;;;5081130;28;20179;-74
2021/10/18 08:09:12;;;;;;;6.30;1.43;;;21.20;94.00;;;;;;5072990;28;20206;-74
2021/10/18 08:11:39;;;;;;;5.73;1.60;;;21.20;94.40;;;;;;5086567;28;20616;-77
2021/10/18 08:14:07;;;;;;;7.50;1.47;;;21.20;94.50;;;;;;5086776;28;20270;-76
2021/10/18 08:16:34;;;;;;;2.90;1.00;;;21.20;94.60;;;;;;5086673;28;20231;-75
2021/10/18 08:19:01;;;;;;;5.37;1.00;;;21.20;94.80;;;;;;5092596;28;20179;-75
2021/10/18 08:21:29;;;;;;;7.30;1.33;;;21.30;94.90;;;;;;5086474;28;20182;-76
2021/10/18 08:23:56;;;;;;;6.20;1.50;;;21.20;95.00;;;;;;5090909;28;20231;-76
2021/10/18 08:26:24;;;;;;;3.73;1.37;;;21.20;95.20;;;;;;5093248;28;20655;-73
2021/10/18 08:28:51;;;;;;;7.57;1.80;;;21.10;94.90;;;;;;5087966;28;20265;-74
2021/10/18 08:31:18;;;;;;;1.90;1.00;;;21.00;94.40;;;;;;5091934;28;20174;-79
2021/10/18 08:33:46;;;;;;;4.17;1.40;;;21.00;93.90;;;;;;5090443;28;20269;-78
2021/10/18 08:36:14;;;;;;;2.60;0.93;;;21.10;94.40;;;;;;5083667;28;20914;-79
2021/10/18 08:38:48;;;;;;;5.83;2.13;;;21.10;94.80;;;;;;5087412;28;20674;-78
2021/10/18 08:41:25;;;;;;;3.27;1.60;;;21.10;94.80;;;;;;5089706;28;20750;-78
2021/10/18 08:46:25;;;;;;;2.53;1.23;;;21.00;94.70;;;;;;5076487;28;20816;-75
2021/10/18 08:48:56;;;;;;;12.63;4.63;;;20.90;95.00;;;;;;5082026;28;20634;-78
2021/10/18 08:51:24;;;;;;;5.97;1.57;;;20.90;95.30;;;;;;5087000;28;20555;-78
2021/10/18 08:53:51;;;;;;;4.47;1.57;;;20.80;95.80;;;;;;5091099;28;20174;-78
2021/10/18 08:56:19;;;;;;;3.73;1.60;;;20.70;96.60;;;;;;5101999;28;20191;-76
2021/10/18 08:58:46;;;;;;;4.77;1.57;;;20.70;97.10;;;;;;5092090;28;20533;-75
2021/10/18 09:01:14;;;;;;;8.20;2.20;;;20.60;97.60;;;;;;5087923;28;20535;-76
2021/10/18 09:03:42;;;;;;;5.27;1.63;;;20.60;98.20;;;;;;5084380;28;20183;-77
2021/10/18 09:06:22;;;;;;;7.33;1.90;;;20.50;98.50;;;;;;5080296;28;20212;-76
2021/10/18 09:09:02;;;;;;;5.00;1.90;;;20.60;99.30;;;;;;5083084;28;20264;-79
2021/10/18 09:11:30;;;;;;;4.20;1.47;;;20.50;99.90;;;;;;5091673;28;20652;-77
2021/10/18 09:14:01;;;;;;;4.53;1.50;;;20.50;99.90;;;;;;5083495;28;20225;-76
2021/10/18 09:16:40;;;;;;;9.40;1.73;;;20.50;99.90;;;;;;5087983;28;20174;-78
2021/10/18 09:19:25;;;;;;;3.97;1.40;;;20.50;99.90;;;;;;5089353;28;20182;-75
2021/10/18 09:22:03;;;;;;;6.87;1.70;;;20.50;99.90;;;;;;5083180;28;20170;-76
2021/10/18 09:24:31;;;;;;;4.23;1.70;;;20.50;99.90;;;;;;5090094;28;20189;-77
2021/10/18 09:27:01;;;;;;;6.67;1.53;;;20.50;99.90;;;;;;5090652;28;20182;-77
2021/10/18 09:29:44;;;;;;;4.90;1.30;;;20.50;99.90;;;;;;5090852;28;20298;-79
2021/10/18 09:32:18;;;;;;;5.27;1.60;;;20.50;99.90;;;;;;5080039;28;20190;-77
2021/10/18 09:34:46;;;;;;;3.63;1.50;;;20.50;99.90;;;;;;5091828;28;20183;-76
2021/10/18 09:37:15;;;;;;;4.50;1.77;;;20.50;99.90;;;;;;5086931;28;20202;-76
2021/10/18 09:39:45;;;;;;;4.30;1.20;;;20.50;99.90;;;;;;5092212;28;20185;-77
2021/10/18 09:42:21;;;;;;;5.17;1.43;;;20.40;99.90;;;;;;5085349;28;20213;-77
2021/10/18 10:53:23;;;;;;;5.83;1.87;;;20.00;99.90;;;;;;5084381;28;20178;-76
2021/10/18 10:55:53;;;;;;;6.07;1.87;;;20.00;99.90;;;;;;5085695;28;20266;-73
2021/10/18 10:58:50;;;;;;;8.13;1.80;;;20.00;99.90;;;;;;5089945;28;20197;-74
2021/10/18 11:01:46;;;;;;;3.93;1.50;;;20.00;99.90;;;;;;5094985;28;20179;-75
2021/10/18 11:04:33;;;;;;;4.40;1.67;;;20.00;99.90;;;;;;5055679;28;20187;-75
2021/10/18 11:07:02;;;;;;;7.17;1.60;;;20.00;99.90;;;;;;5094960;28;20612;-75
2021/10/18 11:09:46;;;;;;;5.93;2.23;;;20.00;99.90;;;;;;5093103;28;20206;-75
2021/10/18 11:12:33;;;;;;;8.70;1.87;;;20.00;99.90;;;;;;5092415;28;20224;-74
2021/10/18 11:15:09;;;;;;;8.07;1.60;;;19.80;99.90;;;;;;5095042;28;20181;-74
2021/10/18 11:17:46;;;;;;;5.37;1.80;;;19.80;99.90;;;;;;5094731;28;20236;-76
2021/10/18 11:20:21;;;;;;;5.50;1.60;;;19.80;99.90;;;;;;5090575;28;20186;-75
2021/10/18 11:22:55;;;;;;;5.80;1.70;;;19.70;99.90;;;;;;5081487;28;20174;-75
2021/10/18 11:25:25;;;;;;;6.57;1.80;;;19.70;99.90;;;;;;5094519;28;20187;-75
2021/10/18 11:27:56;;;;;;;2.97;1.47;;;19.70;99.90;;;;;;5089299;28;20592;-76
2021/10/18 11:30:27;;;;;;;6.87;1.70;;;19.60;99.90;;;;;;5093769;28;20718;-74
2021/10/18 11:33:10;;;;;;;5.83;1.83;;;19.60;99.90;;;;;;5094804;28;20179;-74
2021/10/18 11:35:39;;;;;;;4.37;1.37;;;19.60;99.90;;;;;;5094017;28;20257;-74
2021/10/18 11:38:26;;;;;;;3.73;1.57;;;19.50;99.90;;;;;;5090774;28;20544;-76
2021/10/18 11:40:53;;;;;;;4.90;1.47;;;19.40;99.90;;;;;;5094322;28;20202;-74
2021/10/18 11:43:30;;;;;;;9.07;1.60;;;19.40;99.90;;;;;;5088607;28;20183;-74
2021/10/18 11:45:58;;;;;;;3.27;1.60;;;19.30;99.90;;;;;;5077951;28;20677;-77
2021/10/18 11:48:27;;;;;;;11.47;1.83;;;19.20;99.90;;;;;;5094073;28;20201;-74
2021/10/18 11:50:58;;;;;;;5.73;1.83;;;19.20;99.90;;;;;;5091784;28;20228;-75
2021/10/18 11:53:27;;;;;;;6.47;2.20;;;19.20;99.90;;;;;;5083265;28;20236;-75
2021/10/18 11:55:57;;;;;;;5.27;1.53;;;19.20;99.90;;;;;;5093911;28;20680;-75
2021/10/18 11:58:32;;;;;;;5.00;1.47;;;19.20;99.90;;;;;;5093974;28;20190;-74
2021/10/18 12:01:01;;;;;;;3.30;1.53;;;19.10;99.90;;;;;;5093198;28;20193;-75
2021/10/18 12:03:32;;;;;;;5.37;1.87;;;19.00;99.90;;;;;;5094021;28;20178;-75
2021/10/18 12:06:02;;;;;;;5.60;1.73;;;19.10;99.90;;;;;;5090537;28;20182;-75
2021/10/18 12:08:32;;;;;;;6.50;1.90;;;19.00;99.90;;;;;;5081715;28;20179;-75
2021/10/18 12:11:02;;;;;;;3.73;1.70;;;19.00;99.90;;;;;;5093693;28;20252;-76
2021/10/18 12:13:45;;;;;;;4.37;1.87;;;19.00;99.90;;;;;;5093613;28;20252;-77
2021/10/18 12:16:22;;;;;;;3.63;1.67;;;18.90;99.90;;;;;;5079872;28;20194;-76
2021/10/18 12:18:51;;;;;;;7.57;1.83;;;18.90;99.90;;;;;;5093743;28;20179;-76
2021/10/18 12:21:25;;;;;;;4.17;1.90;;;18.90;99.90;;;;;;5091655;28;20183;-76
2021/10/18 12:23:56;;;;;;;5.17;2.13;;;18.90;99.90;;;;;;5084361;28;20194;-76
2021/10/18 12:26:26;;;;;;;6.60;1.77;;;18.90;99.90;;;;;;5087365;28;20178;-76
2021/10/18 12:28:55;;;;;;;6.23;2.60;;;18.80;99.90;;;;;;5093541;28;20226;-76
2021/10/18 12:31:31;;;;;;;4.37;1.67;;;18.80;99.90;;;;;;5092108;28;20186;-79
2021/10/18 12:34:16;;;;;;;8.77;1.80;;;18.70;99.90;;;;;;5090945;28;20273;-76
2021/10/18 12:37:00;;;;;;;6.17;1.87;;;18.70;99.90;;;;;;5093253;28;20178;-76
2021/10/18 12:39:40;;;;;;;8.27;2.63;;;18.70;99.90;;;;;;5092064;28;20181;-75
2021/10/18 12:42:27;;;;;;;6.80;2.13;;;18.60;99.90;;;;;;5091339;28;20231;-78
2021/10/18 12:45:14;;;;;;;5.23;1.90;;;18.50;99.90;;;;;;5070375;28;20281;-75
2021/10/18 12:48:02;;;;;;;4.73;1.90;;;18.40;99.90;;;;;;5090455;28;20182;-75
2021/10/18 12:50:37;;;;;;;3.27;2.07;;;18.30;99.90;;;;;;5092525;28;20218;-75
2021/10/18 12:53:12;;;;;;;5.77;2.10;;;18.30;99.90;;;;;;5093096;28;20181;-75
2021/10/18 12:55:39;;;;;;;4.47;1.93;;;18.30;99.90;;;;;;5086819;28;20186;-75
2021/10/18 12:58:17;;;;;;;5.00;2.20;;;18.30;99.90;;;;;;5092745;28;20178;-79
2021/10/18 13:00:45;;;;;;;7.73;1.93;;;18.20;99.90;;;;;;5082911;28;20182;-76
2021/10/18 13:03:12;;;;;;;3.40;1.50;;;18.20;99.90;;;;;;5092713;28;20256;-78
2021/10/18 13:05:59;;;;;;;3.27;1.37;;;18.20;99.90;;;;;;5089271;28;20235;-76
2021/10/18 13:08:29;;;;;;;7.17;2.17;;;18.20;99.90;;;;;;5093160;28;20174;-79
2021/10/18 13:10:57;;;;;;;4.47;1.80;;;18.10;99.90;;;;;;5092604;28;20211;-77
2021/10/18 13:13:25;;;;;;;8.40;2.00;;;18.10;99.90;;;;;;5090692;28;20229;-75
2021/10/18 13:15:54;;;;;;;7.90;2.57;;;18.10;99.90;;;;;;5092360;28;20171;-75
2021/10/18 13:18:22;;;;;;;4.83;1.80;;;18.10;99.90;;;;;;5092299;28;20228;-77
2021/10/18 13:20:49;;;;;;;4.90;1.80;;;18.10;99.90;;;;;;5091311;28;20178;-76
2021/10/18 13:23:21;;;;;;;12.23;2.53;;;18.00;99.90;;;;;;5088188;28;20188;-77
2021/10/18 13:25:49;;;;;;;11.93;2.57;;;18.00;99.90;;;;;;5086822;28;20229;-75
2021/10/18 13:28:16;;;;;;;11.73;3.50;;;18.00;99.90;;;;;;5080258;28;20191;-75
2021/10/18 13:30:43;;;;;;;12.63;2.70;;;18.00;99.90;;;;;;5071139;28;20225;-75
2021/10/18 13:33:11;;;;;;;27.60;3.87;;;17.90;99.90;;;;;;5072876;28;20185;-75
2021/10/18 13:35:40;;;;;;;12.63;3.33;;;18.00;99.90;;;;;;5090101;28;20183;-76
2021/10/18 13:38:09;;;;;;;17.33;4.03;;;17.90;99.90;;;;;;5092807;28;20175;-76
2021/10/18 13:40:36;;;;;;;21.60;4.10;;;18.00;99.90;;;;;;5092686;28;20182;-75
2021/10/18 13:43:06;;;;;;;24.30;4.23;;;18.00;99.90;;;;;;5090030;28;20221;-76
2021/10/18 13:45:34;;;;;;;26.87;4.27;;;18.00;99.90;;;;;;5073425;28;20240;-75
2021/10/18 13:48:01;;;;;;;19.67;4.27;;;18.00;99.90;;;;;;5086038;28;20690;-75
2021/10/18 13:50:28;;;;;;;14.83;3.57;;;18.00;99.90;;;;;;5092563;28;20312;-78
2021/10/18 13:52:56;;;;;;;19.90;3.87;;;18.10;99.90;;;;;;5092773;28;20229;-79
2021/10/18 13:55:26;;;;;;;17.27;3.60;;;18.10;99.90;;;;;;5092553;28;20187;-78
2021/10/18 13:57:54;;;;;;;18.30;4.43;;;18.10;99.90;;;;;;5089323;28;20185;-78
2021/10/18 14:00:23;;;;;;;13.50;3.10;;;18.10;99.90;;;;;;5087308;28;20185;-76
2021/10/18 14:02:52;;;;;;;17.57;3.53;;;18.10;99.90;;;;;;5076109;28;20215;-75
2021/10/18 14:05:20;;;;;;;13.53;2.87;;;18.10;99.90;;;;;;5084834;28;20202;-77
2021/10/18 14:07:48;;;;;;;13.07;2.80;;;18.10;99.90;;;;;;5094388;28;20247;-78
2021/10/18 14:10:16;;;;;;;12.50;4.17;;;18.10;99.90;;;;;;5093592;28;20246;-78